Time;durP1;ratioP1;P1;durP2;ratioP2;P2;SDS_P1;SDS_P2;PMS_P1;PMS_P2;Temp;Humidity;BMP_temperature;BMP_pressure;BME280_temperature;BME280_humidity;BME280_pressure;Samples;Min_cycle;Max_cycle;Signal;HPM_P1;HPM_P2
2023/10/29 00:01:33;;;;;;;;;;;10.90;99.90;;;;;;5176941;27;19923;-42
2023/10/29 00:03:59;;;;;;;;;;;10.90;99.90;;;;;;5176677;27;20033;-42
2023/10/29 00:06:24;;;;;;;;;;;11.00;99.90;;;;;;5176631;27;19922;-42
2023/10/29 00:08:50;;;;;;;;;;;11.00;99.90;;;;;;5176707;27;19922;-41
2023/10/29 00:11:15;;;;;;;;;;;11.00;99.90;;;;;;5176515;27;19923;-42
2023/10/29 00:13:41;;;;;;;;;;;11.00;99.90;;;;;;5176714;27;19929;-42
2023/10/29 00:16:07;;;;;;;;;;;11.00;99.90;;;;;;5176493;27;20013;-42
2023/10/29 00:18:32;;;;;;;;;;;11.00;99.90;;;;;;5176557;27;19923;-43
2023/10/29 00:20:58;;;;;;;;;;;11.00;99.90;;;;;;5176573;27;19967;-43
2023/10/29 00:23:23;;;;;;;;;;;11.10;99.90;;;;;;5176460;27;20026;-42
2023/10/29 00:25:49;;;;;;;;;;;11.10;99.90;;;;;;5176517;27;19923;-42
2023/10/29 00:28:14;;;;;;;;;;;11.10;99.90;;;;;;5176577;27;20376;-43
2023/10/29 00:30:40;;;;;;;;;;;11.10;99.90;;;;;;5176473;27;20366;-43
2023/10/29 00:33:06;;;;;;;;;;;11.20;99.90;;;;;;5176523;27;19923;-42
2023/10/29 00:35:32;;;;;;;;;;;11.10;99.90;;;;;;5157808;27;19930;-42
2023/10/29 00:37:58;;;;;;;;;;;11.20;99.90;;;;;;5176505;27;19975;-42
2023/10/29 00:40:23;;;;;;;;;;;11.10;99.90;;;;;;5176241;27;19922;-42
2023/10/29 00:42:49;;;;;;;;;;;11.20;99.90;;;;;;5176403;27;19923;-41
2023/10/29 00:45:14;;;;;;;;;;;11.20;99.90;;;;;;5176404;27;19923;-42
2023/10/29 00:47:40;;;;;;;;;;;11.20;99.90;;;;;;5176437;27;20021;-42
2023/10/29 00:50:06;;;;;;;;;;;11.20;99.90;;;;;;5179076;27;19923;-42
2023/10/29 00:52:31;;;;;;;;;;;11.20;99.90;;;;;;5161907;27;20353;-42
2023/10/29 00:54:57;;;;;;;;;;;11.20;99.90;;;;;;5161270;27;19926;-42
2023/10/29 00:57:23;;;;;;;;;;;11.20;99.90;;;;;;5180388;27;20273;-42
2023/10/29 00:59:48;;;;;;;;;;;11.20;99.90;;;;;;5180231;27;19929;-42
2023/10/29 01:02:14;;;;;;;;;;;11.20;99.90;;;;;;5179997;27;20377;-42
2023/10/29 01:04:39;;;;;;;;;;;11.20;99.90;;;;;;5180045;27;19975;-42
2023/10/29 01:07:05;;;;;;;;;;;11.20;99.90;;;;;;5180152;27;20021;-42
2023/10/29 01:09:31;;;;;;;;;;;11.30;99.90;;;;;;5180034;27;19923;-43
2023/10/29 01:11:56;;;;;;;;;;;11.20;99.90;;;;;;5179883;27;19923;-43
2023/10/29 01:14:23;;;;;;;;;;;11.20;99.90;;;;;;5179940;27;19929;-42
2023/10/29 01:16:49;;;;;;;;;;;11.20;99.90;;;;;;5179984;27;19926;-43
2023/10/29 01:19:14;;;;;;;;;;;11.20;99.90;;;;;;5179916;27;19930;-43
2023/10/29 01:21:40;;;;;;;;;;;11.30;99.90;;;;;;5179848;27;19923;-43
2023/10/29 01:24:06;;;;;;;;;;;11.20;99.90;;;;;;5178887;27;19923;-42
2023/10/29 01:26:31;;;;;;;;;;;11.30;99.90;;;;;;5179689;27;20278;-42
2023/10/29 01:28:57;;;;;;;;;;;11.30;99.90;;;;;;5179982;27;19927;-42
2023/10/29 01:31:22;;;;;;;;;;;11.30;99.90;;;;;;5161221;27;19923;-45
2023/10/29 01:33:48;;;;;;;;;;;11.30;99.90;;;;;;5179587;27;20441;-42
2023/10/29 01:36:13;;;;;;;;;;;11.30;99.90;;;;;;5179597;27;20416;-42
2023/10/29 01:38:39;;;;;;;;;;;11.40;99.90;;;;;;5179503;27;20388;-42
2023/10/29 01:41:05;;;;;;;;;;;11.40;99.90;;;;;;5179207;27;19923;-42
2023/10/29 01:43:30;;;;;;;;;;;11.40;99.90;;;;;;5179460;27;19966;-42
2023/10/29 01:45:56;;;;;;;;;;;11.40;99.90;;;;;;5179422;27;20026;-43
2023/10/29 01:48:23;;;;;;;;;;;11.40;99.90;;;;;;5179205;27;19923;-42
2023/10/29 01:50:50;;;;;;;;;;;11.40;99.90;;;;;;5179128;27;19923;-42
2023/10/29 01:53:16;;;;;;;;;;;11.50;99.90;;;;;;5178925;27;19923;-43
2023/10/29 01:55:41;;;;;;;;;;;11.50;99.90;;;;;;5179251;27;20246;-42
2023/10/29 01:58:07;;;;;;;;;;;11.50;99.90;;;;;;5179225;27;19930;-42
2023/10/29 02:00:32;;;;;;;;;;;11.50;99.90;;;;;;5178103;27;19923;-42
2023/10/29 02:02:58;;;;;;;;;;;11.60;99.90;;;;;;5160753;27;19927;-42
2023/10/29 02:05:24;;;;;;;;;;;11.60;99.90;;;;;;5178865;27;19962;-42
2023/10/29 02:07:50;;;;;;;;;;;11.70;99.90;;;;;;5179021;27;19930;-42
2023/10/29 02:10:15;;;;;;;;;;;11.60;99.90;;;;;;5178860;27;19923;-42
2023/10/29 02:12:41;;;;;;;;;;;11.70;99.90;;;;;;5178820;27;20357;-42
2023/10/29 02:15:07;;;;;;;;;;;11.70;99.90;;;;;;5178732;27;19971;-42
2023/10/29 02:17:33;;;;;;;;;;;11.70;99.90;;;;;;5178806;27;19929;-42
2023/10/29 02:19:58;;;;;;;;;;;11.80;99.90;;;;;;5178624;27;19923;-42
2023/10/29 02:22:24;;;;;;;;;;;11.80;99.90;;;;;;5178637;27;19923;-42
2023/10/29 02:24:50;;;;;;;;;;;11.80;99.90;;;;;;5178784;27;19923;-42
2023/10/29 02:27:16;;;;;;;;;;;11.80;99.90;;;;;;5178594;27;20018;-42
2023/10/29 02:29:42;;;;;;;;;;;11.80;99.90;;;;;;5178464;27;20009;-42
2023/10/29 02:32:07;;;;;;;;;;;11.80;99.90;;;;;;5178477;27;20277;-42
2023/10/29 02:34:33;;;;;;;;;;;11.80;99.90;;;;;;5178526;27;20013;-42
2023/10/29 02:36:58;;;;;;;;;;;11.90;99.90;;;;;;5178165;27;20293;-43
2023/10/29 02:39:24;;;;;;;;;;;11.90;99.90;;;;;;5178180;27;20025;-42
2023/10/29 02:41:49;;;;;;;;;;;11.90;99.90;;;;;;5178258;27;19922;-42
2023/10/29 02:44:15;;;;;;;;;;;11.90;99.90;;;;;;5178785;27;19923;-42
2023/10/29 02:46:40;;;;;;;;;;;11.90;99.90;;;;;;5178184;27;19975;-42
2023/10/29 02:49:06;;;;;;;;;;;12.00;99.90;;;;;;5178179;27;19932;-43
2023/10/29 02:51:32;;;;;;;;;;;12.00;99.90;;;;;;5178068;27;20389;-42
2023/10/29 02:53:57;;;;;;;;;;;12.00;99.90;;;;;;5177867;27;20330;-42
2023/10/29 02:56:23;;;;;;;;;;;12.00;99.90;;;;;;5177942;27;19923;-42
2023/10/29 02:58:48;;;;;;;;;;;12.00;99.90;;;;;;5178465;27;19968;-42
2023/10/29 03:01:15;;;;;;;;;;;12.00;99.90;;;;;;5159314;27;20281;-42
2023/10/29 03:03:41;;;;;;;;;;;12.00;99.90;;;;;;5177735;27;19923;-42
2023/10/29 03:06:08;;;;;;;;;;;12.10;99.90;;;;;;5177672;27;19933;-43
2023/10/29 03:08:34;;;;;;;;;;;12.00;99.90;;;;;;5177474;27;20397;-42
2023/10/29 03:10:59;;;;;;;;;;;12.00;99.90;;;;;;5177630;27;20017;-43
2023/10/29 03:13:25;;;;;;;;;;;12.10;99.90;;;;;;5177489;27;20283;-42
2023/10/29 03:15:51;;;;;;;;;;;12.10;99.90;;;;;;5177594;27;19922;-42
2023/10/29 03:18:16;;;;;;;;;;;12.10;99.90;;;;;;5177423;27;19934;-42
2023/10/29 03:20:42;;;;;;;;;;;12.10;99.90;;;;;;5177487;27;20371;-42
2023/10/29 03:23:08;;;;;;;;;;;12.10;99.90;;;;;;5159046;27;19929;-42
2023/10/29 03:25:34;;;;;;;;;;;12.00;99.90;;;;;;5177448;27;19927;-42
2023/10/29 03:27:59;;;;;;;;;;;12.10;99.90;;;;;;5177499;27;19923;-42
2023/10/29 03:30:25;;;;;;;;;;;12.10;99.90;;;;;;5158938;27;19922;-42
2023/10/29 03:32:51;;;;;;;;;;;12.10;99.90;;;;;;5177141;27;20282;-43
2023/10/29 03:35:17;;;;;;;;;;;12.10;99.90;;;;;;5177199;27;19980;-42
2023/10/29 03:37:43;;;;;;;;;;;12.10;99.90;;;;;;5176925;27;19923;-43
2023/10/29 03:40:08;;;;;;;;;;;12.00;99.90;;;;;;5177227;27;19923;-43
2023/10/29 03:42:34;;;;;;;;;;;12.10;99.90;;;;;;5177192;27;19923;-42
2023/10/29 03:45:00;;;;;;;;;;;12.10;99.90;;;;;;5177099;27;20365;-42
2023/10/29 03:47:25;;;;;;;;;;;12.10;99.90;;;;;;5177055;27;20025;-42
2023/10/29 03:49:51;;;;;;;;;;;12.10;99.90;;;;;;5177035;27;19967;-43
2023/10/29 03:52:19;;;;;;;;;;;12.00;99.90;;;;;;5176893;27;20377;-43
2023/10/29 03:54:45;;;;;;;;;;;12.10;99.90;;;;;;5157922;27;19929;-42
2023/10/29 03:57:10;;;;;;;;;;;12.00;99.90;;;;;;5177174;27;19927;-43
2023/10/29 03:59:36;;;;;;;;;;;12.00;99.90;;;;;;5176945;27;19966;-42
2023/10/29 04:02:02;;;;;;;;;;;12.00;99.90;;;;;;5176821;27;20311;-42
2023/10/29 04:04:27;;;;;;;;;;;12.00;99.90;;;;;;5176756;27;19929;-43
2023/10/29 04:06:53;;;;;;;;;;;12.00;99.90;;;;;;5176464;27;19975;-42
2023/10/29 04:09:19;;;;;;;;;;;12.10;99.90;;;;;;5158407;27;19927;-43
2023/10/29 04:11:44;;;;;;;;;;;12.10;99.90;;;;;;5176677;27;19926;-42
2023/10/29 04:14:10;;;;;;;;;;;12.10;99.90;;;;;;5177041;27;19923;-43
2023/10/29 04:16:35;;;;;;;;;;;12.20;99.90;;;;;;5176880;27;19923;-43
2023/10/29 04:19:01;;;;;;;;;;;12.20;99.90;;;;;;5176539;27;20274;-43
2023/10/29 04:21:26;;;;;;;;;;;12.20;99.90;;;;;;5176424;27;19950;-43
2023/10/29 04:23:52;;;;;;;;;;;12.30;99.90;;;;;;5177466;27;19923;-43
2023/10/29 04:26:18;;;;;;;;;;;12.30;99.90;;;;;;5180955;27;20001;-43
2023/10/29 04:28:43;;;;;;;;;;;12.30;99.90;;;;;;5180913;27;19930;-43
2023/10/29 04:31:09;;;;;;;;;;;12.30;99.90;;;;;;5180889;27;20391;-42
2023/10/29 04:33:34;;;;;;;;;;;12.40;99.90;;;;;;5162383;27;20377;-42
2023/10/29 04:36:00;;;;;;;;;;;12.40;99.90;;;;;;5180696;27;20377;-43
2023/10/29 04:38:26;;;;;;;;;;;12.40;99.90;;;;;;5180714;27;20318;-43
2023/10/29 04:40:52;;;;;;;;;;;12.40;99.90;;;;;;5180438;27;19945;-44
2023/10/29 04:43:17;;;;;;;;;;;12.50;99.90;;;;;;5180712;27;19930;-43
2023/10/29 04:45:43;;;;;;;;;;;12.50;99.90;;;;;;5180590;27;19945;-43
2023/10/29 04:48:08;;;;;;;;;;;12.50;99.90;;;;;;5180402;27;20270;-43
2023/10/29 04:50:34;;;;;;;;;;;12.50;99.90;;;;;;5180465;27;20266;-44
2023/10/29 04:53:02;;;;;;;;;;;12.50;99.90;;;;;;5180488;27;20317;-43
2023/10/29 04:55:28;;;;;;;;;;;12.40;99.90;;;;;;5179953;27;20381;-44
2023/10/29 04:57:53;;;;;;;;;;;12.40;99.90;;;;;;5180747;27;19982;-44
2023/10/29 05:00:19;;;;;;;;;;;12.30;99.90;;;;;;5180178;27;20420;-43
2023/10/29 05:02:45;;;;;;;;;;;12.30;99.90;;;;;;5180085;27;19929;-42
2023/10/29 05:05:11;;;;;;;;;;;12.20;99.90;;;;;;5179983;27;19923;-43
2023/10/29 05:07:36;;;;;;;;;;;12.20;99.90;;;;;;5179929;27;19922;-43
2023/10/29 05:10:03;;;;;;;;;;;12.10;99.90;;;;;;5180109;27;19930;-43
2023/10/29 05:12:28;;;;;;;;;;;12.10;99.90;;;;;;5180079;27;20021;-43
2023/10/29 05:14:54;;;;;;;;;;;12.10;99.90;;;;;;5179952;27;20025;-43
2023/10/29 05:17:19;;;;;;;;;;;12.00;99.90;;;;;;5179785;27;19967;-42
2023/10/29 05:19:45;;;;;;;;;;;12.00;99.90;;;;;;5179579;27;19979;-42
2023/10/29 05:22:11;;;;;;;;;;;12.00;99.90;;;;;;5179625;27;19923;-43
2023/10/29 05:24:36;;;;;;;;;;;12.00;99.90;;;;;;5179806;27;19923;-43
2023/10/29 05:27:03;;;;;;;;;;;12.00;99.90;;;;;;5179971;27;19930;-42
2023/10/29 05:29:28;;;;;;;;;;;12.00;99.90;;;;;;5179804;27;19922;-42
2023/10/29 05:31:54;;;;;;;;;;;12.00;99.90;;;;;;5179726;27;20448;-43
2023/10/29 05:34:20;;;;;;;;;;;12.00;99.90;;;;;;5179527;27;19975;-43
2023/10/29 05:36:47;;;;;;;;;;;11.90;99.90;;;;;;5178013;27;20013;-42
2023/10/29 05:39:14;;;;;;;;;;;11.90;99.90;;;;;;5179489;27;19922;-43
2023/10/29 05:41:40;;;;;;;;;;;11.90;99.90;;;;;;5179541;27;20281;-43
2023/10/29 05:44:06;;;;;;;;;;;11.90;99.90;;;;;;5179512;27;19922;-42
2023/10/29 05:46:32;;;;;;;;;;;11.90;99.90;;;;;;5179470;27;19966;-43
2023/10/29 05:48:58;;;;;;;;;;;11.80;99.90;;;;;;5179069;27;19926;-43
2023/10/29 05:51:23;;;;;;;;;;;11.80;99.90;;;;;;5179349;27;20288;-43
2023/10/29 05:53:49;;;;;;;;;;;11.80;99.90;;;;;;5161019;27;19923;-43
2023/10/29 05:56:15;;;;;;;;;;;11.80;99.90;;;;;;5160448;27;19977;-43
2023/10/29 05:58:41;;;;;;;;;;;11.80;99.90;;;;;;5179214;27;19968;-43
2023/10/29 06:01:07;;;;;;;;;;;11.80;99.90;;;;;;5179234;27;20034;-42
2023/10/29 06:03:33;;;;;;;;;;;11.80;99.90;;;;;;5178961;27;20005;-43
2023/10/29 06:05:59;;;;;;;;;;;11.80;99.90;;;;;;5178834;27;20490;-43
2023/10/29 06:08:25;;;;;;;;;;;11.80;99.90;;;;;;5179002;27;19965;-44
2023/10/29 06:10:50;;;;;;;;;;;11.80;99.90;;;;;;5179191;27;19970;-43
2023/10/29 06:13:16;;;;;;;;;;;11.80;99.90;;;;;;5178722;27;19929;-43
2023/10/29 06:15:41;;;;;;;;;;;11.80;99.90;;;;;;5178684;27;19922;-42
2023/10/29 06:18:07;;;;;;;;;;;11.80;99.90;;;;;;5178586;27;19933;-43
2023/10/29 06:20:33;;;;;;;;;;;11.90;99.90;;;;;;5178624;27;19930;-44
2023/10/29 06:22:59;;;;;;;;;;;11.90;99.90;;;;;;5178584;27;19929;-44
2023/10/29 06:25:24;;;;;;;;;;;12.00;99.90;;;;;;5179036;27;19975;-43
2023/10/29 06:27:50;;;;;;;;;;;12.00;99.90;;;;;;5178918;27;20017;-45
2023/10/29 06:30:16;;;;;;;;;;;12.00;99.90;;;;;;5178659;27;20289;-42
2023/10/29 06:32:42;;;;;;;;;;;12.00;99.90;;;;;;5178403;27;19923;-42
2023/10/29 06:35:08;;;;;;;;;;;12.10;99.90;;;;;;5178235;27;19930;-42
2023/10/29 06:37:34;;;;;;;;;;;12.10;99.90;;;;;;5178357;27;19922;-43
2023/10/29 06:40:00;;;;;;;;;;;12.20;99.90;;;;;;5160113;27;19930;-42
2023/10/29 06:42:25;;;;;;;;;;;12.20;99.90;;;;;;5178180;27;19930;-42
2023/10/29 06:44:51;;;;;;;;;;;12.20;99.90;;;;;;5178129;27;19923;-42
2023/10/29 06:47:16;;;;;;;;;;;12.20;99.90;;;;;;5159116;27;19926;-43
2023/10/29 06:49:42;;;;;;;;;;;12.20;99.90;;;;;;5178050;27;20021;-42
2023/10/29 06:52:08;;;;;;;;;;;12.20;99.90;;;;;;5178089;27;19923;-42
2023/10/29 06:54:34;;;;;;;;;;;12.10;99.90;;;;;;5177989;27;19922;-43
2023/10/29 06:57:00;;;;;;;;;;;12.10;99.90;;;;;;5177781;27;19922;-43
2023/10/29 06:59:28;;;;;;;;;;;12.10;99.90;;;;;;5178009;27;19970;-43
2023/10/29 07:01:56;;;;;;;;;;;12.10;99.90;;;;;;5177751;27;19974;-43
2023/10/29 07:04:22;;;;;;;;;;;12.10;99.90;;;;;;5178232;27;19965;-42
2023/10/29 07:06:49;;;;;;;;;;;12.20;99.90;;;;;;5177968;27;20358;-44
2023/10/29 07:09:15;;;;;;;;;;;12.20;99.90;;;;;;5177642;27;20326;-42
2023/10/29 07:11:44;;;;;;;;;;;12.20;99.90;;;;;;5177586;27;19922;-43
2023/10/29 07:14:10;;;;;;;;;;;12.20;99.90;;;;;;5177598;27;19922;-42
2023/10/29 07:16:37;;;;;;;;;;;12.20;99.90;;;;;;5177511;27;19923;-43
2023/10/29 07:19:04;;;;;;;;;;;12.30;99.90;;;;;;5177658;27;19930;-42
2023/10/29 07:21:30;;;;;;;;;;;12.30;99.90;;;;;;5159191;27;20297;-43
2023/10/29 07:23:55;;;;;;;;;;;12.30;99.90;;;;;;5177441;27;19923;-44
2023/10/29 07:26:21;;;;;;;;;;;12.30;99.90;;;;;;5177589;27;20022;-44
2023/10/29 07:28:47;;;;;;;;;;;12.40;99.90;;;;;;5177275;27;20411;-43
2023/10/29 07:31:12;;;;;;;;;;;12.40;99.90;;;;;;5177053;27;19922;-44
2023/10/29 07:33:38;;;;;;;;;;;12.40;99.90;;;;;;5177205;27;19982;-42
2023/10/29 07:36:04;;;;;;;;;;;12.40;99.90;;;;;;5177217;27;19929;-41
2023/10/29 07:38:30;;;;;;;;;;;12.50;99.90;;;;;;5177128;27;20363;-41
2023/10/29 07:40:55;;;;;;;;;;;12.50;99.90;;;;;;5177255;27;19923;-42
2023/10/29 07:43:21;;;;;;;;;;;12.50;99.90;;;;;;5176986;27;20280;-42
2023/10/29 07:45:47;;;;;;;;;;;12.50;99.90;;;;;;5158418;27;19926;-42
2023/10/29 07:48:13;;;;;;;;;;;12.50;99.90;;;;;;5177071;27;19930;-42
2023/10/29 07:50:39;;;;;;;;;;;12.60;99.90;;;;;;5158968;27;20297;-41
2023/10/29 07:53:04;;;;;;;;;;;12.60;99.90;;;;;;5177507;27;19923;-41
2023/10/29 07:55:30;;;;;;;;;;;12.60;99.90;;;;;;5176936;27;20353;-41
2023/10/29 07:57:56;;;;;;;;;;;12.60;99.90;;;;;;5176425;27;19929;-41
2023/10/29 08:00:21;;;;;;;;;;;12.60;99.90;;;;;;5176178;27;19975;-42
2023/10/29 08:02:47;;;;;;;;;;;12.70;99.90;;;;;;5176890;27;19927;-42
2023/10/29 08:05:14;;;;;;;;;;;12.70;99.90;;;;;;5176608;27;19966;-41
2023/10/29 08:07:40;;;;;;;;;;;12.70;99.90;;;;;;5158467;27;19922;-42
2023/10/29 08:10:06;;;;;;;;;;;12.70;99.90;;;;;;5176722;27;20281;-41
2023/10/29 08:12:34;;;;;;;;;;;12.80;99.90;;;;;;5176626;27;19992;-42
2023/10/29 08:15:00;;;;;;;;;;;12.80;99.90;;;;;;5157898;27;20298;-42
2023/10/29 08:17:25;;;;;;;;;;;12.80;99.90;;;;;;5176464;27;19930;-41
2023/10/29 08:19:52;;;;;;;;;;;12.80;99.90;;;;;;5176838;27;19922;-42
2023/10/29 08:22:17;;;;;;;;;;;12.80;99.90;;;;;;5176618;27;20013;-42
2023/10/29 08:24:43;;;;;;;;;;;12.80;99.90;;;;;;5176645;27;19990;-41
2023/10/29 08:27:09;;;;;;;;;;;12.90;99.90;;;;;;5176547;27;19922;-42
2023/10/29 08:29:35;;;;;;;;;;;12.90;99.90;;;;;;5176282;27;20278;-42
2023/10/29 08:32:01;;;;;;;;;;;12.90;99.90;;;;;;5176571;27;19922;-42
2023/10/29 08:34:27;;;;;;;;;;;12.90;99.90;;;;;;5176570;27;20059;-41
2023/10/29 08:36:53;;;;;;;;;;;12.90;99.90;;;;;;5176458;27;20297;-42
2023/10/29 08:39:21;;;;;;;;;;;13.00;99.90;;;;;;5158401;27;19930;-41
2023/10/29 08:41:50;;;;;;;;;;;13.00;99.90;;;;;;5176300;27;20417;-42
2023/10/29 08:44:18;;;;;;;;;;;13.00;99.90;;;;;;5176380;27;19930;-42
2023/10/29 08:46:44;;;;;;;;;;;13.00;99.90;;;;;;5176382;27;19923;-42
2023/10/29 08:49:11;;;;;;;;;;;13.00;99.90;;;;;;5176405;27;19929;-42
2023/10/29 08:51:36;;;;;;;;;;;13.10;99.90;;;;;;5176170;27;20381;-42
2023/10/29 08:54:03;;;;;;;;;;;13.10;99.90;;;;;;5176139;27;19923;-42
2023/10/29 08:56:29;;;;;;;;;;;13.10;99.90;;;;;;5176275;27;19923;-42
2023/10/29 08:58:55;;;;;;;;;;;13.20;99.90;;;;;;5175931;27;19926;-42
2023/10/29 09:01:20;;;;;;;;;;;13.20;99.90;;;;;;5176316;27;19930;-42
2023/10/29 09:03:46;;;;;;;;;;;13.20;99.90;;;;;;5176314;27;20017;-41
2023/10/29 09:06:12;;;;;;;;;;;13.20;99.90;;;;;;5157857;27;19970;-42
2023/10/29 09:08:38;;;;;;;;;;;13.20;99.90;;;;;;5176099;27;19926;-42
2023/10/29 09:11:04;;;;;;;;;;;13.20;99.90;;;;;;5178600;27;20281;-42
2023/10/29 09:13:30;;;;;;;;;;;13.20;99.90;;;;;;5179794;27;20013;-42
2023/10/29 09:15:55;;;;;;;;;;;13.20;99.90;;;;;;5180035;27;19923;-42
2023/10/29 09:18:21;;;;;;;;;;;13.20;99.90;;;;;;5179975;27;19997;-42
2023/10/29 09:20:47;;;;;;;;;;;13.20;99.90;;;;;;5161569;27;19935;-42
2023/10/29 09:23:13;;;;;;;;;;;13.30;99.90;;;;;;5179799;27;19945;-42
2023/10/29 09:25:39;;;;;;;;;;;13.30;99.90;;;;;;5179781;27;20062;-42
2023/10/29 09:28:07;;;;;;;;;;;13.30;99.90;;;;;;5179657;27;19990;-41
2023/10/29 09:30:33;;;;;;;;;;;13.20;99.90;;;;;;5179819;27;19923;-42
2023/10/29 09:32:58;;;;;;;;;;;13.20;99.90;;;;;;5179591;27;20384;-42
2023/10/29 09:35:24;;;;;;;;;;;13.30;99.90;;;;;;5179467;27;19922;-42
2023/10/29 09:37:50;;;;;;;;;;;13.40;99.90;;;;;;5161234;27;20389;-42
2023/10/29 09:40:15;;;;;;;;;;;13.40;99.90;;;;;;5179596;27;19927;-42
2023/10/29 09:42:49;;;;;;;;;;;13.50;99.90;;;;;;5179328;27;19967;-42
2023/10/29 09:45:18;;;;;;;;;;;13.50;99.90;;;;;;5161299;27;20384;-41
2023/10/29 09:47:43;;;;;;;;;;;13.50;99.90;;;;;;5179617;27;19923;-42
2023/10/29 09:50:09;;;;;;;;;;;13.50;99.90;;;;;;5179316;27;19923;-42
2023/10/29 09:52:35;;;;;;;;;;;13.50;99.90;;;;;;5179223;27;20293;-42
2023/10/29 09:55:02;;;;;;;;;;;13.50;99.90;;;;;;5178919;27;20392;-42
2023/10/29 09:57:30;;;;;;;;;;;13.60;99.90;;;;;;5179134;27;20036;-42
2023/10/29 09:59:56;;;;;;;;;;;13.60;99.90;;;;;;5179097;27;19923;-42
2023/10/29 10:02:22;;;;;;;;;;;13.70;99.90;;;;;;5179516;27;20074;-42
2023/10/29 10:04:48;;;;;;;;;;;13.70;99.90;;;;;;5179042;27;19991;-42
2023/10/29 10:07:15;;;;;;;;;;;13.70;99.90;;;;;;5178839;27;19983;-41
2023/10/29 10:09:53;;;;;;;;;;;13.80;99.90;;;;;;5179068;27;19983;-42
2023/10/29 10:12:20;;;;;;;;;;;13.80;99.90;;;;;;5178982;27;20056;-42
2023/10/29 10:14:46;;;;;;;;;;;13.80;99.90;;;;;;5178815;27;20063;-42
2023/10/29 10:17:12;;;;;;;;;;;13.80;99.90;;;;;;5178809;27;19934;-42
2023/10/29 10:19:39;;;;;;;;;;;13.80;99.90;;;;;;5178857;27;19923;-42
2023/10/29 10:22:05;;;;;;;;;;;13.80;99.90;;;;;;5177931;27;19923;-41
2023/10/29 10:24:38;;;;;;;;;;;13.80;99.90;;;;;;5178411;27;19959;-41
2023/10/29 10:27:04;;;;;;;;;;;13.80;99.90;;;;;;5178711;27;19969;-42
2023/10/29 10:29:33;;;;;;;;;;;13.80;99.90;;;;;;5178598;27;19923;-42
2023/10/29 10:31:59;;;;;;;;;;;13.80;99.90;;;;;;5178484;27;19923;-41
2023/10/29 10:34:25;;;;;;;;;;;13.90;99.90;;;;;;5178336;27;20319;-41
2023/10/29 10:36:50;;;;;;;;;;;13.90;99.90;;;;;;5178181;27;19927;-42
2023/10/29 10:39:22;;;;;;;;;;;13.90;99.90;;;;;;5178434;27;19923;-41
2023/10/29 10:41:49;;;;;;;;;;;13.90;99.90;;;;;;5178477;27;19989;-42
2023/10/29 10:44:16;;;;;;;;;;;13.80;99.90;;;;;;5178293;27;19923;-42
2023/10/29 10:46:46;;;;;;;;;;;13.90;99.90;;;;;;5178167;27;20294;-42
2023/10/29 10:49:12;;;;;;;;;;;13.90;99.90;;;;;;5178219;27;19930;-42
2023/10/29 10:51:37;;;;;;;;;;;13.90;99.90;;;;;;5177815;27;20297;-42
2023/10/29 10:54:04;;;;;;;;;;;13.90;99.90;;;;;;5178697;27;19982;-41
2023/10/29 10:56:31;;;;;;;;;;;13.90;99.90;;;;;;5177912;27;19930;-42
2023/10/29 10:58:58;;;;;;;;;;;13.90;99.90;;;;;;5178018;27;19923;-42
2023/10/29 11:01:24;;;;;;;;;;;13.90;99.90;;;;;;5178081;27;19923;-43
2023/10/29 11:03:51;;;;;;;;;;;14.00;99.90;;;;;;5177901;27;19922;-42
2023/10/29 11:06:16;;;;;;;;;;;14.00;99.90;;;;;;5177576;27;19976;-43
2023/10/29 11:08:42;;;;;;;;;;;14.00;99.90;;;;;;5177586;27;19926;-42
2023/10/29 11:11:08;;;;;;;;;;;14.10;99.90;;;;;;5178115;27;19984;-42
2023/10/29 11:13:33;;;;;;;;;;;14.20;99.90;;;;;;5177696;27;19923;-42
2023/10/29 11:16:01;;;;;;;;;;;14.20;99.90;;;;;;5177830;27;19930;-42
2023/10/29 11:18:33;;;;;;;;;;;14.20;99.90;;;;;;5177484;27;19926;-42
2023/10/29 11:21:00;;;;;;;;;;;14.30;99.90;;;;;;5177567;27;19930;-42
2023/10/29 11:23:26;;;;;;;;;;;14.30;99.90;;;;;;5177974;27;19984;-42
2023/10/29 11:26:10;;;;;;;;;;;14.30;99.90;;;;;;5177467;27;19923;-42
2023/10/29 11:28:36;;;;;;;;;;;14.20;99.90;;;;;;5177218;27;19922;-42
2023/10/29 11:31:18;;;;;;;;;;;14.20;99.90;;;;;;5177254;27;20403;-41
2023/10/29 11:33:44;;;;;;;;;;;14.20;99.90;;;;;;5177231;27;19923;-42
2023/10/29 11:36:29;;;;;;;;;;;14.20;99.90;;;;;;5177258;27;19930;-41
2023/10/29 11:39:15;;;;;;;;;;;14.20;99.90;;;;;;5177244;27;20009;-41
2023/10/29 11:41:41;;;;;;;;;;;14.20;99.90;;;;;;5176760;27;19982;-42
2023/10/29 11:44:25;;;;;;;;;;;14.30;99.90;;;;;;5177140;27;19922;-41
2023/10/29 11:47:03;;;;;;;;;;;14.40;99.90;;;;;;5177232;27;19993;-42
2023/10/29 11:49:41;;;;;;;;;;;14.50;99.90;;;;;;5158608;27;19923;-42
2023/10/29 11:52:06;;;;;;;;;;;14.50;99.90;;;;;;5177022;27;19923;-42
2023/10/29 11:54:37;;;;;;;;;;;14.40;99.90;;;;;;5158927;27;19927;-42
2023/10/29 11:57:04;;;;;;;;;;;14.40;99.90;;;;;;5154522;27;19923;-41
2023/10/29 11:59:31;;;;;;;;;;;14.30;99.90;;;;;;5156116;27;20397;-42
2023/10/29 12:01:56;;;;;;;;;;;14.20;99.90;;;;;;5154931;27;20275;-42
2023/10/29 12:04:31;;;;;;;;;;;14.20;99.90;;;;;;5155973;27;19930;-42
2023/10/29 12:06:57;;;;;;;;;;;14.10;99.90;;;;;;5155968;27;19927;-41
2023/10/29 12:09:24;;;;;;;;;;;14.10;99.90;;;;;;5155940;27;20390;-42
2023/10/29 12:11:53;;;;;;;;;;;14.10;99.90;;;;;;5156136;27;19930;-42
2023/10/29 12:14:38;;;;;;;;;;;14.10;99.90;;;;;;5155757;27;19930;-42
2023/10/29 12:17:04;;;;;;;;;;;14.00;99.90;;;;;;5155806;27;20290;-42
2023/10/29 12:19:36;;;;;;;;;;;14.00;99.90;;;;;;5155573;27;19927;-41
2023/10/29 12:22:11;;;;;;;;;;;14.00;99.90;;;;;;5155858;27;19923;-41
2023/10/29 12:24:37;;;;;;;;;;;14.00;99.90;;;;;;5155738;27;19927;-42
2023/10/29 12:27:02;;;;;;;;;;;14.00;99.90;;;;;;5155711;27;19990;-41
2023/10/29 12:29:28;;;;;;;;;;;13.90;99.90;;;;;;5155622;27;19923;-42
2023/10/29 12:31:53;;;;;;;;;;;14.00;99.90;;;;;;5155425;27;20014;-42
2023/10/29 12:34:19;;;;;;;;;;;13.90;99.90;;;;;;5155692;27;19923;-42
2023/10/29 12:36:53;;;;;;;;;;;13.90;99.90;;;;;;5155613;27;19934;-42
2023/10/29 12:39:19;;;;;;;;;;;13.90;99.90;;;;;;5155800;27;20344;-42
2023/10/29 12:41:54;;;;;;;;;;;13.90;99.90;;;;;;5155461;27;19976;-42
2023/10/29 12:44:21;;;;;;;;;;;13.90;99.90;;;;;;5155340;27;19977;-42
2023/10/29 12:46:49;;;;;;;;;;;13.90;99.90;;;;;;5159627;27;19923;-42
2023/10/29 12:49:24;;;;;;;;;;;13.90;99.90;;;;;;5158782;27;19930;-42
2023/10/29 12:51:52;;;;;;;;;;;13.90;99.90;;;;;;5159629;27;19930;-42
2023/10/29 12:54:25;;;;;;;;;;;13.90;99.90;;;;;;5158333;27;19976;-42
2023/10/29 12:56:53;;;;;;;;;;;13.90;99.90;;;;;;5175807;27;19923;-42
2023/10/29 12:59:20;;;;;;;;;;;13.80;99.90;;;;;;5180336;27;19966;-42
2023/10/29 13:01:59;;;;;;;;;;;13.90;99.90;;;;;;5180378;27;19927;-42
2023/10/29 13:04:25;;;;;;;;;;;13.90;99.90;;;;;;5180319;27;20377;-42
2023/10/29 13:06:55;;;;;;;;;;;13.80;99.90;;;;;;5180297;27;19923;-42
2023/10/29 13:09:25;;;;;;;;;;;13.80;99.90;;;;;;5179907;27;20337;-42
2023/10/29 13:11:51;;;;;;;;;;;13.80;99.90;;;;;;5180144;27;19922;-42
2023/10/29 13:14:17;;;;;;;;;;;13.80;99.90;;;;;;5180008;27;20301;-42
2023/10/29 13:16:43;;;;;;;;;;;13.80;99.90;;;;;;5180009;27;19930;-42
2023/10/29 13:19:10;;;;;;;;;;;13.80;99.90;;;;;;5179872;27;19923;-42
2023/10/29 13:21:36;;;;;;;;;;;13.80;99.90;;;;;;5144594;27;19968;-42
2023/10/29 13:24:03;;;;;;;;;;;13.80;99.90;;;;;;5179696;27;19923;-42
2023/10/29 13:26:29;;;;;;;;;;;13.80;99.90;;;;;;5161474;27;19967;-42
2023/10/29 13:28:55;;;;;;;;;;;13.80;99.90;;;;;;5161238;27;19926;-42
2023/10/29 13:31:21;;;;;;;;;;;13.80;99.90;;;;;;5179923;27;19974;-42
2023/10/29 13:33:47;;;;;;;;;;;13.80;99.90;;;;;;5179638;27;19927;-42
2023/10/29 13:36:13;;;;;;;;;;;13.80;99.90;;;;;;5179692;27;20370;-42
2023/10/29 13:38:39;;;;;;;;;;;13.80;99.90;;;;;;5179309;27;19929;-42
2023/10/29 13:41:05;;;;;;;;;;;13.80;99.90;;;;;;5179586;27;19922;-42
2023/10/29 13:43:30;;;;;;;;;;;13.80;99.90;;;;;;5179934;27;19927;-42
2023/10/29 13:46:00;;;;;;;;;;;13.80;99.90;;;;;;5179419;27;20330;-42
2023/10/29 13:48:26;;;;;;;;;;;13.80;99.90;;;;;;5179485;27;19927;-41
2023/10/29 13:50:52;;;;;;;;;;;13.80;99.90;;;;;;5179255;27;20024;-42
2023/10/29 13:53:17;;;;;;;;;;;13.80;99.90;;;;;;5179122;27;19933;-42
2023/10/29 13:55:43;;;;;;;;;;;13.80;99.90;;;;;;5178787;27;19978;-42
2023/10/29 13:58:08;;;;;;;;;;;13.80;99.90;;;;;;5178217;27;19929;-42
2023/10/29 14:00:34;;;;;;;;;;;13.90;99.90;;;;;;5179212;27;20045;-42
2023/10/29 14:02:59;;;;;;;;;;;13.90;99.90;;;;;;5179268;27;19923;-42
2023/10/29 14:05:25;;;;;;;;;;;14.00;99.90;;;;;;5160267;27;19922;-42
2023/10/29 14:07:54;;;;;;;;;;;14.10;99.90;;;;;;5178781;27;20037;-42
2023/10/29 14:10:20;;;;;;;;;;;14.10;99.90;;;;;;5178989;27;19922;-42
2023/10/29 14:12:46;;;;;;;;;;;14.20;99.90;;;;;;5178977;27;19926;-42